Time;durP1;ratioP1;P1;durP2;ratioP2;P2;SDS_P1;SDS_P2;PMS_P1;PMS_P2;Temp;Humidity;BMP_temperature;BMP_pressure;BME280_temperature;BME280_humidity;BME280_pressure;Samples;Min_cycle;Max_cycle;Signal;HPM_P1;HPM_P2
2021/05/05 00:00:11;;;;;;;1.80;1.70;;;10.80;99.90;;;;;;5029060;28;20429;-61
2021/05/05 00:02:37;;;;;;;2.90;1.80;;;10.80;99.90;;;;;;5020464;28;20927;-61
2021/05/05 00:05:02;;;;;;;2.40;1.80;;;10.80;99.90;;;;;;5028226;28;20440;-62
2021/05/05 00:07:28;;;;;;;1.83;1.73;;;10.70;99.90;;;;;;5029311;28;21086;-61
2021/05/05 00:09:53;;;;;;;1.80;1.70;;;10.70;99.90;;;;;;5020939;28;20186;-61
2021/05/05 00:12:19;;;;;;;4.70;2.40;;;10.60;99.90;;;;;;5028833;28;20178;-61
2021/05/05 00:14:44;;;;;;;1.63;1.53;;;10.70;99.90;;;;;;5031189;28;20233;-61
2021/05/05 00:17:11;;;;;;;1.70;1.63;;;10.60;99.90;;;;;;5027436;28;20262;-62
2021/05/05 00:19:36;;;;;;;2.00;1.73;;;10.60;1.00;;;;;;5029837;28;20265;-61
2021/05/05 00:22:02;;;;;;;2.60;2.10;;;10.60;1.00;;;;;;5028451;28;20548;-62
2021/05/05 00:24:28;;;;;;;2.00;1.90;;;10.60;1.00;;;;;;5029512;28;20394;-61
2021/05/05 00:26:54;;;;;;;2.20;2.10;;;10.60;1.00;;;;;;5028225;28;20202;-62
2021/05/05 00:29:19;;;;;;;2.13;1.93;;;10.60;1.00;;;;;;5028937;28;20417;-61
2021/05/05 00:31:45;;;;;;;2.07;1.90;;;10.60;1.00;;;;;;5027298;28;20263;-62
2021/05/05 00:34:10;;;;;;;2.20;2.10;;;10.60;1.00;;;;;;5028634;28;20182;-62
2021/05/05 00:36:36;;;;;;;3.47;2.10;;;10.60;1.00;;;;;;5029477;28;20171;-62
2021/05/05 00:39:04;;;;;;;2.17;2.07;;;10.60;1.00;;;;;;5028220;28;20219;-63
2021/05/05 00:41:29;;;;;;;2.30;2.10;;;10.60;1.00;;;;;;5029435;28;20648;-62
2021/05/05 00:43:55;;;;;;;4.10;2.03;;;10.60;1.00;;;;;;5025929;28;20437;-62
2021/05/05 00:46:20;;;;;;;2.30;2.10;;;10.50;1.00;;;;;;5029088;28;20205;-62
2021/05/05 00:48:46;;;;;;;2.40;2.10;;;10.50;1.00;;;;;;5023973;28;20205;-62
2021/05/05 00:51:12;;;;;;;2.03;1.80;;;10.40;1.00;;;;;;5029089;28;20602;-62
2021/05/05 00:53:39;;;;;;;2.17;2.07;;;10.40;1.00;;;;;;5030169;28;20190;-63
2021/05/05 00:56:05;;;;;;;3.27;2.37;;;10.40;1.00;;;;;;5029138;28;20209;-62
2021/05/05 00:58:30;;;;;;;2.43;2.23;;;10.40;1.00;;;;;;5027882;28;20497;-62
2021/05/05 01:00:56;;;;;;;4.90;2.60;;;10.40;1.00;;;;;;5028244;28;20243;-62
2021/05/05 01:03:22;;;;;;;2.23;2.00;;;10.40;1.00;;;;;;5026882;28;20182;-62
2021/05/05 01:05:49;;;;;;;2.93;2.10;;;10.40;1.00;;;;;;5029194;28;20673;-62
2021/05/05 01:08:16;;;;;;;2.67;2.47;;;10.40;1.00;;;;;;5026705;28;20567;-62
2021/05/05 01:10:44;;;;;;;2.13;2.03;;;10.30;1.00;;;;;;5025558;28;20468;-62
2021/05/05 01:13:11;;;;;;;1.97;1.87;;;10.30;1.00;;;;;;5027339;28;20464;-62
2021/05/05 01:15:36;;;;;;;2.50;2.23;;;10.30;1.00;;;;;;5029584;28;20482;-62
2021/05/05 01:18:02;;;;;;;2.80;2.07;;;10.30;1.00;;;;;;5027306;28;20448;-62
2021/05/05 01:20:30;;;;;;;3.57;1.90;;;10.30;1.00;;;;;;5027786;28;20186;-62
2021/05/05 01:22:56;;;;;;;2.10;1.90;;;10.30;1.00;;;;;;5027894;28;20191;-62
2021/05/05 01:25:22;;;;;;;2.27;2.00;;;10.30;1.00;;;;;;5028150;28;20421;-62
2021/05/05 01:27:48;;;;;;;2.53;2.33;;;10.20;1.00;;;;;;5031887;28;20236;-62
2021/05/05 01:30:16;;;;;;;2.73;2.33;;;10.20;1.00;;;;;;5032318;28;20493;-63
2021/05/05 01:32:42;;;;;;;2.03;1.93;;;10.20;1.00;;;;;;5031112;28;20183;-62
2021/05/05 01:35:11;;;;;;;2.57;2.37;;;10.20;1.00;;;;;;5033252;28;20521;-62
2021/05/05 01:37:40;;;;;;;3.33;2.40;;;10.10;1.00;;;;;;5030782;28;21330;-62
2021/05/05 01:40:07;;;;;;;2.57;2.37;;;10.10;1.00;;;;;;5032599;28;20930;-62
2021/05/05 01:42:32;;;;;;;2.70;2.50;;;10.10;1.00;;;;;;5031726;28;20452;-62
2021/05/05 01:44:58;;;;;;;4.10;2.53;;;10.10;1.00;;;;;;5031425;28;20542;-62
2021/05/05 01:47:24;;;;;;;2.30;1.90;;;10.00;14.90;;;;;;5031498;28;20245;-63
2021/05/05 01:49:49;;;;;;;3.27;2.40;;;10.10;25.20;;;;;;5032406;28;20894;-61
2021/05/05 01:52:17;;;;;;;2.90;2.40;;;10.00;44.70;;;;;;5030766;28;20683;-60
2021/05/05 01:54:43;;;;;;;2.10;2.00;;;10.00;99.90;;;;;;5032420;28;20167;-60
2021/05/05 01:57:31;;;;;;;4.40;2.33;;;10.00;99.90;;;;;;5031742;28;20448;-61
2021/05/05 01:59:59;;;;;;;2.70;2.40;;;10.00;54.40;;;;;;5030722;28;21003;-61
2021/05/05 02:02:28;;;;;;;2.17;1.97;;;9.90;99.90;;;;;;5012309;28;20446;-61
2021/05/05 02:04:54;;;;;;;2.43;2.20;;;9.90;99.90;;;;;;5028198;28;20439;-61
2021/05/05 02:07:20;;;;;;;3.00;2.17;;;10.00;99.90;;;;;;5031998;28;20623;-61
2021/05/05 02:09:45;;;;;;;3.60;2.57;;;10.00;99.90;;;;;;5030091;28;20999;-61
2021/05/05 02:12:14;;;;;;;3.40;2.30;;;9.90;99.90;;;;;;5026919;28;20177;-61
2021/05/05 02:14:39;;;;;;;2.47;2.27;;;10.00;99.90;;;;;;5029623;28;20174;-61
2021/05/05 02:17:05;;;;;;;4.50;2.40;;;9.90;99.90;;;;;;5031295;28;20421;-61
2021/05/05 02:19:30;;;;;;;2.23;2.13;;;9.90;99.90;;;;;;5029528;28;20265;-62
2021/05/05 02:21:56;;;;;;;3.03;2.83;;;9.90;99.90;;;;;;5031674;28;20208;-61
2021/05/05 02:24:22;;;;;;;3.10;2.43;;;9.90;99.90;;;;;;5029867;28;20198;-61
2021/05/05 02:26:47;;;;;;;2.60;2.40;;;9.90;99.90;;;;;;5031616;28;20298;-62
2021/05/05 02:29:13;;;;;;;2.50;2.30;;;9.90;99.90;;;;;;5030330;28;20432;-61
2021/05/05 02:31:39;;;;;;;2.57;2.33;;;9.90;1.00;;;;;;5031321;28;20230;-61
2021/05/05 02:34:04;;;;;;;7.13;3.30;;;9.80;1.00;;;;;;5029847;28;20186;-61
2021/05/05 02:36:31;;;;;;;2.60;2.27;;;9.80;1.00;;;;;;5031685;28;20183;-62
2021/05/05 02:38:59;;;;;;;2.90;2.70;;;9.70;1.00;;;;;;5030561;28;20201;-62
2021/05/05 02:41:24;;;;;;;2.80;2.60;;;9.70;1.00;;;;;;5028564;28;20461;-61
2021/05/05 02:43:50;;;;;;;2.53;2.33;;;9.70;1.00;;;;;;5030288;28;20477;-62
2021/05/05 02:46:16;;;;;;;2.43;2.23;;;9.70;1.00;;;;;;5018305;28;20202;-62
2021/05/05 02:48:42;;;;;;;3.57;2.60;;;9.60;91.50;;;;;;5030405;28;20450;-62
2021/05/05 02:51:07;;;;;;;2.30;2.03;;;9.70;18.00;;;;;;5030727;28;20171;-62
2021/05/05 02:53:33;;;;;;;5.40;2.47;;;9.70;1.00;;;;;;5030057;28;20178;-62
2021/05/05 02:55:59;;;;;;;5.17;2.80;;;9.60;94.70;;;;;;5027349;28;20560;-62
2021/05/05 02:58:24;;;;;;;4.57;2.73;;;9.50;99.90;;;;;;5029973;28;20193;-61
2021/05/05 03:00:50;;;;;;;2.30;2.20;;;9.50;99.90;;;;;;5030104;28;20206;-61
2021/05/05 03:03:15;;;;;;;2.80;2.60;;;9.50;99.90;;;;;;5029706;28;20189;-62
2021/05/05 03:05:41;;;;;;;2.67;2.23;;;9.40;1.00;;;;;;5029167;28;20316;-62
2021/05/05 03:08:06;;;;;;;2.67;2.53;;;9.40;1.00;;;;;;5029554;28;20249;-62
2021/05/05 03:10:32;;;;;;;3.20;2.70;;;9.40;1.00;;;;;;5030374;28;20186;-62
2021/05/05 03:12:58;;;;;;;2.73;2.50;;;9.40;1.00;;;;;;5029375;28;20243;-62
2021/05/05 03:15:23;;;;;;;2.33;2.17;;;9.40;1.00;;;;;;5031550;28;20428;-62
2021/05/05 03:17:49;;;;;;;3.47;2.70;;;9.40;1.00;;;;;;5030627;28;20617;-63
2021/05/05 03:20:15;;;;;;;2.80;2.60;;;9.30;1.00;;;;;;5030369;28;20197;-63
2021/05/05 03:22:41;;;;;;;3.40;2.67;;;9.30;1.00;;;;;;5029035;28;20188;-62
2021/05/05 03:25:08;;;;;;;2.90;2.53;;;9.30;1.00;;;;;;5030232;28;20218;-62
2021/05/05 03:27:34;;;;;;;2.67;2.13;;;9.40;1.00;;;;;;5029068;28;20476;-61
2021/05/05 03:30:00;;;;;;;2.60;2.40;;;9.30;1.00;;;;;;5029614;28;20425;-61
2021/05/05 03:32:26;;;;;;;3.03;2.70;;;9.20;99.90;;;;;;5027824;28;20479;-61
2021/05/05 03:34:52;;;;;;;2.60;2.40;;;9.30;1.00;;;;;;5030552;28;20421;-62
2021/05/05 03:37:18;;;;;;;2.50;2.30;;;9.40;1.00;;;;;;5029148;28;20476;-62
2021/05/05 03:39:43;;;;;;;3.50;2.57;;;9.30;1.00;;;;;;5029538;28;20196;-61
2021/05/05 03:42:09;;;;;;;4.00;2.53;;;9.30;1.00;;;;;;5029522;28;20574;-62
2021/05/05 03:44:35;;;;;;;2.80;2.60;;;9.50;16.40;;;;;;5028861;28;20209;-61
2021/05/05 03:47:01;;;;;;;3.20;2.47;;;9.60;1.00;;;;;;5028020;28;20217;-61
2021/05/05 03:49:27;;;;;;;2.53;2.30;;;9.50;1.00;;;;;;5028180;28;20849;-62
2021/05/05 03:51:52;;;;;;;2.40;2.20;;;9.50;1.00;;;;;;5029245;28;20263;-61
2021/05/05 03:54:18;;;;;;;2.90;2.40;;;9.50;1.00;;;;;;5022229;28;20576;-61
2021/05/05 03:56:45;;;;;;;3.90;2.50;;;9.50;1.00;;;;;;5028123;28;20278;-61
2021/05/05 03:59:10;;;;;;;2.30;2.20;;;9.50;1.00;;;;;;5027533;28;20289;-61
2021/05/05 04:01:36;;;;;;;2.77;2.50;;;9.50;1.00;;;;;;5029132;28;20519;-62
2021/05/05 04:04:02;;;;;;;2.47;2.37;;;9.50;1.00;;;;;;5028345;28;20920;-61
2021/05/05 04:06:27;;;;;;;3.00;2.57;;;9.60;1.00;;;;;;5028883;28;20202;-61
2021/05/05 04:08:53;;;;;;;3.47;2.60;;;9.60;1.00;;;;;;5029728;28;20424;-61
2021/05/05 04:11:19;;;;;;;2.70;2.50;;;9.60;1.00;;;;;;5027398;28;20197;-60
2021/05/05 04:13:44;;;;;;;2.70;2.50;;;9.60;1.00;;;;;;5027118;28;20190;-61
2021/05/05 04:16:10;;;;;;;2.70;2.50;;;9.70;99.90;;;;;;5028030;28;20198;-62
2021/05/05 04:18:35;;;;;;;2.60;2.30;;;9.70;99.90;;;;;;5021313;28;20183;-62
2021/05/05 04:21:04;;;;;;;6.00;2.70;;;9.70;99.90;;;;;;5008772;28;20196;-62
2021/05/05 04:23:31;;;;;;;3.37;2.30;;;9.80;99.90;;;;;;5015459;28;20197;-62
2021/05/05 04:25:57;;;;;;;2.70;2.50;;;9.80;99.90;;;;;;5004289;28;20505;-62
2021/05/05 04:28:24;;;;;;;4.20;2.70;;;9.80;1.00;;;;;;5019378;28;20405;-62
2021/05/05 04:30:49;;;;;;;3.10;2.70;;;9.70;99.90;;;;;;5014084;28;20361;-63
2021/05/05 04:33:15;;;;;;;2.67;2.47;;;9.70;99.90;;;;;;5006492;28;20520;-63
2021/05/05 04:35:41;;;;;;;4.40;2.70;;;9.70;99.90;;;;;;5013965;28;20186;-62
2021/05/05 04:38:06;;;;;;;2.80;2.47;;;9.70;99.90;;;;;;5002957;28;20183;-62
2021/05/05 04:40:32;;;;;;;4.40;2.77;;;9.70;99.90;;;;;;5004486;28;20184;-62
2021/05/05 04:42:57;;;;;;;2.97;2.70;;;9.70;1.00;;;;;;5021683;28;20540;-63
2021/05/05 04:45:23;;;;;;;3.00;2.80;;;9.70;1.00;;;;;;5014648;28;20179;-62
2021/05/05 04:47:49;;;;;;;2.60;2.40;;;9.80;1.00;;;;;;5029605;28;20209;-61
2021/05/05 04:50:14;;;;;;;3.03;2.73;;;9.90;1.00;;;;;;5028225;28;20178;-62
2021/05/05 04:52:40;;;;;;;2.70;2.50;;;9.90;99.90;;;;;;5026486;28;20190;-62
2021/05/05 04:55:07;;;;;;;3.00;2.70;;;10.00;99.90;;;;;;5026787;28;20178;-62
2021/05/05 04:57:34;;;;;;;3.20;2.70;;;10.10;99.90;;;;;;5028724;28;20318;-63
2021/05/05 05:00:00;;;;;;;3.30;2.90;;;10.20;99.90;;;;;;5028515;28;20421;-62
2021/05/05 05:02:25;;;;;;;4.33;2.70;;;10.30;7.40;;;;;;5031732;28;20491;-62
2021/05/05 05:04:51;;;;;;;3.20;2.33;;;10.30;99.90;;;;;;5033278;28;20186;-62
2021/05/05 05:07:16;;;;;;;2.93;2.60;;;10.50;1.00;;;;;;5027330;28;20917;-62
2021/05/05 05:09:42;;;;;;;2.80;2.60;;;10.60;1.00;;;;;;5032189;28;20215;-62
2021/05/05 05:12:08;;;;;;;3.93;2.80;;;10.60;1.00;;;;;;5022083;28;20293;-62
2021/05/05 05:14:36;;;;;;;3.87;2.93;;;10.70;1.00;;;;;;5039208;28;20922;-62
2021/05/05 05:17:02;;;;;;;2.40;2.20;;;10.80;99.90;;;;;;5033096;28;20959;-62
2021/05/05 05:19:28;;;;;;;3.80;2.60;;;10.80;99.90;;;;;;5031163;28;20493;-63
2021/05/05 05:21:54;;;;;;;3.30;2.37;;;11.00;99.90;;;;;;5032030;28;20473;-62
2021/05/05 05:24:19;;;;;;;3.03;2.80;;;11.00;99.90;;;;;;5032986;28;20182;-62
2021/05/05 05:26:45;;;;;;;2.70;2.60;;;11.10;99.90;;;;;;5031938;28;20202;-63
2021/05/05 05:29:11;;;;;;;3.03;2.73;;;11.20;99.90;;;;;;5032756;28;20213;-63
2021/05/05 05:31:36;;;;;;;2.70;2.53;;;11.20;96.90;;;;;;5031581;28;20245;-62
2021/05/05 05:34:02;;;;;;;3.17;2.87;;;11.20;99.90;;;;;;5032892;28;20228;-63
2021/05/05 05:36:27;;;;;;;3.00;2.70;;;11.20;99.90;;;;;;5031913;28;20700;-63
2021/05/05 05:38:53;;;;;;;4.00;2.60;;;11.20;93.70;;;;;;5032843;28;20802;-63
2021/05/05 05:41:19;;;;;;;3.07;2.70;;;11.20;45.40;;;;;;5031720;28;20186;-63
2021/05/05 05:43:44;;;;;;;3.13;2.60;;;11.20;8.30;;;;;;5048216;28;20182;-63
2021/05/05 05:46:11;;;;;;;2.60;2.40;;;11.20;1.00;;;;;;5031359;28;20214;-63
2021/05/05 05:48:36;;;;;;;6.33;3.07;;;11.20;1.00;;;;;;5033021;28;20158;-63
2021/05/05 05:51:02;;;;;;;3.00;2.80;;;11.20;1.00;;;;;;5031601;28;20415;-63
2021/05/05 05:53:28;;;;;;;3.47;3.00;;;11.20;1.00;;;;;;5030693;28;20198;-63
2021/05/05 05:55:53;;;;;;;2.70;2.50;;;11.40;1.00;;;;;;5028778;28;20185;-65
2021/05/05 05:58:19;;;;;;;3.30;3.00;;;11.40;1.00;;;;;;5031861;28;20190;-65
2021/05/05 06:00:45;;;;;;;3.27;2.80;;;11.40;1.00;;;;;;5031853;28;20198;-64
2021/05/05 06:03:10;;;;;;;2.50;2.40;;;11.40;1.00;;;;;;5031458;28;20187;-65
2021/05/05 06:05:36;;;;;;;3.00;2.80;;;11.40;1.00;;;;;;5031552;28;20629;-64
2021/05/05 06:08:03;;;;;;;2.70;2.50;;;11.40;1.00;;;;;;5027273;28;20230;-64
2021/05/05 06:10:29;;;;;;;2.93;2.73;;;11.40;1.00;;;;;;5026966;28;20532;-64
2021/05/05 06:12:54;;;;;;;3.03;2.80;;;11.50;1.00;;;;;;5031149;28;20456;-65
2021/05/05 06:15:20;;;;;;;2.40;2.30;;;11.60;1.00;;;;;;5032488;28;20416;-64
2021/05/05 06:17:46;;;;;;;2.93;2.70;;;11.70;1.00;;;;;;5030995;28;20440;-64
2021/05/05 06:20:12;;;;;;;2.40;2.30;;;11.80;1.00;;;;;;5031517;28;20214;-65
2021/05/05 06:22:38;;;;;;;3.57;3.20;;;11.90;1.00;;;;;;5031091;28;20656;-64
2021/05/05 06:25:06;;;;;;;3.10;2.80;;;11.90;1.00;;;;;;5031535;28;20524;-64
2021/05/05 06:27:32;;;;;;;6.30;2.90;;;11.90;1.00;;;;;;5030881;28;20228;-64
2021/05/05 06:29:58;;;;;;;2.90;2.60;;;12.00;1.00;;;;;;5027353;28;20469;-64
2021/05/05 06:32:23;;;;;;;2.87;2.67;;;12.00;1.00;;;;;;5024622;28;21062;-65
2021/05/05 06:34:51;;;;;;;4.03;2.80;;;12.00;1.00;;;;;;5029851;28;20879;-63
2021/05/05 06:37:17;;;;;;;2.97;2.77;;;12.00;1.00;;;;;;5026701;28;21003;-63
2021/05/05 06:39:43;;;;;;;2.97;2.63;;;12.10;1.00;;;;;;5028653;28;20432;-65
2021/05/05 06:42:09;;;;;;;4.57;2.60;;;12.10;1.00;;;;;;5029827;28;20425;-63
2021/05/05 06:44:34;;;;;;;2.63;2.50;;;12.10;1.00;;;;;;5029818;28;20444;-63
2021/05/05 06:47:00;;;;;;;2.90;2.70;;;12.10;1.00;;;;;;5029930;28;20198;-64
2021/05/05 06:49:25;;;;;;;2.63;2.47;;;12.20;1.00;;;;;;5030399;28;20668;-62
2021/05/05 06:51:52;;;;;;;3.10;2.47;;;12.30;1.00;;;;;;5029920;28;20543;-60
2021/05/05 06:54:18;;;;;;;2.67;2.47;;;12.20;1.00;;;;;;5030225;28;20189;-63
2021/05/05 06:56:44;;;;;;;2.60;2.40;;;12.20;1.00;;;;;;5029922;28;20428;-62
2021/05/05 06:59:09;;;;;;;2.90;2.63;;;12.10;1.00;;;;;;5030155;28;20772;-65
2021/05/05 07:01:37;;;;;;;3.00;2.30;;;12.10;1.00;;;;;;5036621;28;20309;-63
2021/05/05 07:04:05;;;;;;;3.77;2.90;;;12.10;1.00;;;;;;5029512;28;20201;-63
2021/05/05 07:06:31;;;;;;;2.30;2.20;;;12.10;1.00;;;;;;5029673;28;21084;-61
2021/05/05 07:08:56;;;;;;;2.97;2.77;;;12.20;1.00;;;;;;5029781;28;20509;-61
2021/05/05 07:11:22;;;;;;;3.03;2.70;;;12.20;1.00;;;;;;5026557;28;20653;-61
2021/05/05 07:13:47;;;;;;;2.30;2.10;;;12.10;1.00;;;;;;5031490;28;20185;-63
2021/05/05 07:16:13;;;;;;;3.17;2.87;;;12.10;99.90;;;;;;5036055;28;20182;-63
2021/05/05 07:18:38;;;;;;;2.73;2.53;;;12.10;99.90;;;;;;5029601;28;20182;-61
2021/05/05 07:21:04;;;;;;;3.23;2.93;;;12.10;99.90;;;;;;5028450;28;20227;-65
2021/05/05 07:23:30;;;;;;;3.00;2.80;;;12.00;99.90;;;;;;5027304;28;20187;-66
2021/05/05 07:25:55;;;;;;;3.00;2.60;;;11.90;99.90;;;;;;5028857;28;20233;-65
2021/05/05 07:28:21;;;;;;;3.73;3.43;;;12.10;99.90;;;;;;5029756;28;20175;-68
2021/05/05 07:30:46;;;;;;;3.20;3.00;;;12.20;99.90;;;;;;5029315;28;20226;-65
2021/05/05 07:33:14;;;;;;;2.67;2.47;;;12.20;99.90;;;;;;5029297;28;20629;-68
2021/05/05 07:35:51;;;;;;;3.10;2.87;;;12.40;99.90;;;;;;5029167;28;20175;-65
2021/05/05 07:46:17;;;;;;;3.40;3.20;;;12.60;99.90;;;;;;5028672;28;20236;-69
2021/05/05 07:51:14;;;;;;;5.47;3.53;;;12.40;99.90;;;;;;5029081;28;20782;-66
2021/05/05 07:53:40;;;;;;;2.87;2.67;;;12.20;99.90;;;;;;5028944;28;20416;-64
2021/05/05 07:56:06;;;;;;;3.17;2.97;;;12.20;99.90;;;;;;5028697;28;20972;-66
2021/05/05 07:58:32;;;;;;;3.60;2.93;;;12.10;99.90;;;;;;5029347;28;21005;-66
2021/05/05 08:00:57;;;;;;;3.57;2.87;;;11.90;99.90;;;;;;5029000;28;20190;-64
2021/05/05 08:03:23;;;;;;;3.40;3.10;;;11.80;99.90;;;;;;5029261;28;20194;-66
2021/05/05 08:05:48;;;;;;;3.63;3.33;;;11.70;99.90;;;;;;5028909;28;20601;-68
2021/05/05 08:08:14;;;;;;;3.80;2.80;;;11.70;99.90;;;;;;5028718;28;20183;-65
2021/05/05 08:10:40;;;;;;;3.00;2.80;;;11.60;99.90;;;;;;5028841;28;20194;-66
2021/05/05 08:13:07;;;;;;;3.07;2.90;;;11.50;99.90;;;;;;5028537;28;20504;-67
2021/05/05 08:15:34;;;;;;;2.90;2.57;;;11.50;99.90;;;;;;5030585;28;20904;-65
2021/05/05 08:18:05;;;;;;;3.17;2.97;;;11.60;99.90;;;;;;5029441;28;20425;-65
2021/05/05 08:20:31;;;;;;;3.40;3.20;;;11.90;99.90;;;;;;5029239;28;20413;-64
2021/05/05 08:22:56;;;;;;;2.53;2.37;;;11.80;99.90;;;;;;5027199;28;20444;-64
2021/05/05 08:25:22;;;;;;;3.00;2.70;;;12.00;99.90;;;;;;5027218;28;21128;-64
2021/05/05 08:27:48;;;;;;;3.27;2.90;;;12.00;99.90;;;;;;5028226;28;20210;-65
2021/05/05 08:30:16;;;;;;;3.57;3.27;;;11.90;99.90;;;;;;5028838;28;20415;-64
2021/05/05 08:32:43;;;;;;;3.23;3.03;;;12.00;99.90;;;;;;5025457;28;20178;-65
2021/05/05 08:35:09;;;;;;;3.30;3.10;;;12.30;99.90;;;;;;5025397;28;20433;-65
2021/05/05 08:37:34;;;;;;;3.30;3.10;;;12.50;99.90;;;;;;5029055;28;20421;-64
2021/05/05 08:40:00;;;;;;;3.60;2.57;;;12.80;99.90;;;;;;5028870;28;20420;-66
2021/05/05 08:42:25;;;;;;;3.77;3.47;;;13.00;99.90;;;;;;5028024;28;20624;-64
2021/05/05 08:44:52;;;;;;;3.30;3.00;;;13.10;99.90;;;;;;5028906;28;20193;-64
2021/05/05 08:47:18;;;;;;;3.57;2.83;;;12.90;99.90;;;;;;5028816;28;20218;-65
2021/05/05 08:49:43;;;;;;;3.40;3.10;;;13.10;99.90;;;;;;5028216;28;20421;-66
2021/05/05 08:52:10;;;;;;;3.10;2.80;;;13.20;99.90;;;;;;5028855;28;20178;-66
2021/05/05 08:54:35;;;;;;;4.07;3.00;;;13.20;99.90;;;;;;5026922;28;20180;-66
2021/05/05 08:57:01;;;;;;;3.70;3.40;;;13.30;99.90;;;;;;5026743;28;20437;-66
2021/05/05 08:59:28;;;;;;;4.57;3.40;;;13.30;99.90;;;;;;5027870;28;21471;-64
2021/05/05 09:01:54;;;;;;;3.20;2.90;;;13.40;99.90;;;;;;5028331;28;20546;-65
2021/05/05 09:04:20;;;;;;;4.70;3.30;;;13.30;99.90;;;;;;5027708;28;20429;-64
2021/05/05 09:06:56;;;;;;;3.67;3.40;;;13.30;99.90;;;;;;5028565;28;20539;-66
2021/05/05 09:09:40;;;;;;;3.40;3.20;;;13.30;99.90;;;;;;5027807;28;20193;-65
2021/05/05 09:12:19;;;;;;;3.03;2.83;;;13.10;99.90;;;;;;5027704;28;20495;-65
2021/05/05 09:14:59;;;;;;;2.67;2.53;;;13.00;99.90;;;;;;5038284;28;20412;-66
2021/05/05 09:17:26;;;;;;;3.10;2.90;;;12.90;99.90;;;;;;5039328;28;21098;-66
2021/05/05 09:20:07;;;;;;;2.77;2.67;;;12.80;99.90;;;;;;5027817;28;20892;-66
2021/05/05 09:22:41;;;;;;;3.10;2.90;;;12.80;99.90;;;;;;5027933;28;20524;-65
2021/05/05 09:25:09;;;;;;;3.03;2.83;;;12.70;99.90;;;;;;5028529;28;20432;-66
2021/05/05 09:27:36;;;;;;;3.30;3.10;;;12.60;99.90;;;;;;5027415;28;20544;-66
2021/05/05 09:30:06;;;;;;;3.50;3.20;;;12.70;99.90;;;;;;5028597;28;20409;-65
2021/05/05 09:32:50;;;;;;;4.93;3.23;;;12.80;99.90;;;;;;5027685;28;20472;-65
2021/05/05 09:35:17;;;;;;;3.07;2.87;;;13.00;99.90;;;;;;5028284;28;20534;-69
2021/05/05 09:37:54;;;;;;;3.43;2.93;;;13.20;99.90;;;;;;5026488;28;20440;-65
2021/05/05 09:40:20;;;;;;;3.10;2.90;;;13.40;99.90;;;;;;5028613;28;20387;-65
2021/05/05 09:42:45;;;;;;;3.13;2.83;;;13.50;99.90;;;;;;5027236;28;20900;-65
2021/05/05 09:45:12;;;;;;;3.97;3.23;;;13.50;99.90;;;;;;5028357;28;20891;-64
2021/05/05 09:47:54;;;;;;;4.37;3.00;;;13.50;99.90;;;;;;5029399;28;20207;-65
2021/05/05 09:50:46;;;;;;;3.70;2.87;;;14.20;99.90;;;;;;5026483;28;20441;-64
2021/05/05 09:53:32;;;;;;;3.37;3.07;;;14.50;99.90;;;;;;5024999;28;20513;-64
2021/05/05 09:55:58;;;;;;;3.20;2.90;;;14.50;99.90;;;;;;5028923;28;20757;-64
2021/05/05 09:58:23;;;;;;;3.40;3.10;;;14.40;99.90;;;;;;5031306;28;20416;-64
2021/05/05 10:01:08;;;;;;;3.10;2.90;;;14.50;99.90;;;;;;5031896;28;20620;-64
2021/05/05 10:03:41;;;;;;;3.63;3.43;;;14.30;99.90;;;;;;5030919;28;20185;-64
2021/05/05 10:06:21;;;;;;;3.60;3.33;;;13.90;99.90;;;;;;5031709;28;20426;-64
2021/05/05 10:08:53;;;;;;;3.13;2.87;;;13.70;99.90;;;;;;5027360;28;20787;-64
2021/05/05 10:11:21;;;;;;;3.30;3.10;;;13.70;99.90;;;;;;5031292;28;20472;-65
2021/05/05 10:14:01;;;;;;;4.53;3.40;;;13.80;99.90;;;;;;5033439;28;20913;-64
2021/05/05 10:16:32;;;;;;;4.30;3.03;;;13.90;99.90;;;;;;5032045;28;20843;-65
2021/05/05 10:19:00;;;;;;;3.00;2.80;;;13.80;99.90;;;;;;5030940;28;20430;-64
2021/05/05 10:21:27;;;;;;;3.23;2.90;;;13.90;99.90;;;;;;5029930;28;20444;-64
2021/05/05 10:23:57;;;;;;;3.37;3.17;;;13.90;99.90;;;;;;5030007;28;20416;-65
2021/05/05 10:26:22;;;;;;;4.17;3.43;;;14.00;99.90;;;;;;5029418;28;20487;-64
2021/05/05 10:28:49;;;;;;;4.07;3.77;;;14.10;99.90;;;;;;5029381;28;20501;-64
2021/05/05 10:31:18;;;;;;;4.17;3.80;;;14.20;99.90;;;;;;5028899;28;20292;-65
2021/05/05 10:33:46;;;;;;;3.77;3.33;;;15.00;99.90;;;;;;5027545;28;20418;-65
2021/05/05 10:36:34;;;;;;;3.73;3.43;;;16.00;99.90;;;;;;5028504;28;20429;-64
2021/05/05 10:39:25;;;;;;;3.30;3.10;;;16.60;99.90;;;;;;5031319;28;20449;-64
2021/05/05 10:42:11;;;;;;;3.40;3.10;;;17.60;99.90;;;;;;5022482;28;20437;-64
2021/05/05 10:44:40;;;;;;;3.27;3.07;;;18.40;99.90;;;;;;5046268;28;20770;-63
2021/05/05 10:47:22;;;;;;;3.23;3.03;;;19.00;99.90;;;;;;5029291;28;20547;-63
2021/05/05 10:50:00;;;;;;;3.93;3.67;;;20.00;99.90;;;;;;5030743;28;20453;-63
2021/05/05 10:52:27;;;;;;;3.77;3.50;;;19.50;99.90;;;;;;5029671;28;20490;-64
2021/05/05 10:54:59;;;;;;;3.30;3.00;;;18.90;99.90;;;;;;5026765;28;20421;-65
2021/05/05 10:57:26;;;;;;;4.47;4.17;;;17.70;99.90;;;;;;5021411;28;20539;-64
2021/05/05 11:00:06;;;;;;;3.43;3.23;;;16.60;99.90;;;;;;5028122;28;20480;-64
2021/05/05 11:02:38;;;;;;;4.70;4.30;;;15.70;99.90;;;;;;5029760;28;20429;-63
2021/05/05 11:05:06;;;;;;;4.97;4.57;;;14.90;99.90;;;;;;5029900;28;20532;-64
2021/05/05 11:08:00;;;;;;;3.67;3.37;;;14.30;99.90;;;;;;5029507;28;20477;-65
2021/05/05 11:10:35;;;;;;;3.90;3.27;;;13.90;99.90;;;;;;5028045;28;20480;-67
2021/05/05 11:13:15;;;;;;;4.03;3.67;;;13.70;99.90;;;;;;5024209;28;20429;-63
2021/05/05 11:15:40;;;;;;;3.07;2.87;;;13.70;99.90;;;;;;5041237;28;20443;-64
2021/05/05 11:18:28;;;;;;;3.67;3.37;;;13.70;99.90;;;;;;5029250;28;20449;-64
2021/05/05 11:21:01;;;;;;;3.20;3.00;;;13.80;99.90;;;;;;5023068;28;20188;-64
2021/05/05 11:23:33;;;;;;;3.53;3.30;;;13.90;99.90;;;;;;5027982;28;20435;-63
2021/05/05 11:26:27;;;;;;;4.67;3.40;;;13.90;99.90;;;;;;5022742;28;20429;-65
2021/05/05 11:28:57;;;;;;;3.87;3.67;;;13.60;99.90;;;;;;5029292;28;20445;-63
2021/05/05 11:31:44;;;;;;;3.00;2.80;;;13.20;99.90;;;;;;5028837;28;20484;-63
2021/05/05 11:34:23;;;;;;;3.57;3.27;;;13.00;99.90;;;;;;5029642;28;20421;-64
2021/05/05 11:36:58;;;;;;;3.40;3.20;;;13.20;99.90;;;;;;5029181;28;20464;-65
2021/05/05 11:39:37;;;;;;;3.27;3.07;;;13.20;99.90;;;;;;5029966;28;20464;-65
2021/05/05 11:42:12;;;;;;;3.07;2.87;;;13.20;99.90;;;;;;5044914;28;20433;-64
2021/05/05 11:44:53;;;;;;;4.40;3.33;;;13.20;99.90;;;;;;5029677;28;20946;-64
2021/05/05 11:47:28;;;;;;;4.03;3.23;;;13.10;99.90;;;;;;5027272;28;20615;-64
2021/05/05 11:50:03;;;;;;;4.33;3.10;;;13.00;99.90;;;;;;5028797;28;20910;-69
2021/05/05 11:52:36;;;;;;;4.30;3.20;;;13.00;99.90;;;;;;5028158;28;20436;-65
2021/05/05 11:55:15;;;;;;;3.10;2.90;;;12.90;99.90;;;;;;5028999;28;20444;-64
2021/05/05 11:57:44;;;;;;;3.37;3.17;;;12.50;99.90;;;;;;5029467;28;20424;-63
2021/05/05 12:00:17;;;;;;;3.70;3.40;;;12.80;99.90;;;;;;5028063;28;20484;-63
2021/05/05 12:03:10;;;;;;;3.23;3.03;;;13.40;99.90;;;;;;5016792;28;20908;-64
2021/05/05 12:05:41;;;;;;;3.10;2.90;;;13.50;99.90;;;;;;5027560;28;20446;-64
2021/05/05 12:08:08;;;;;;;3.00;2.80;;;14.30;99.90;;;;;;5034814;28;20527;-63
2021/05/05 12:10:49;;;;;;;3.30;3.10;;;15.40;99.90;;;;;;5027711;28;20462;-63
2021/05/05 12:13:26;;;;;;;2.93;2.73;;;16.60;99.90;;;;;;5028914;28;20840;-64
2021/05/05 12:16:04;;;;;;;3.00;2.80;;;17.40;99.90;;;;;;5041168;28;20417;-64
2021/05/05 12:18:36;;;;;;;2.83;2.63;;;18.00;99.90;;;;;;5028392;28;20466;-63
2021/05/05 12:21:11;;;;;;;2.50;2.30;;;17.40;99.90;;;;;;5016512;28;20420;-63
2021/05/05 12:23:42;;;;;;;3.00;2.70;;;16.80;99.90;;;;;;5028185;28;20431;-64
2021/05/05 12:26:17;;;;;;;3.10;2.80;;;15.80;99.90;;;;;;5019989;28;20896;-63
2021/05/05 12:28:45;;;;;;;2.90;2.70;;;15.80;99.90;;;;;;5028951;28;20460;-64
2021/05/05 12:31:13;;;;;;;2.80;2.57;;;15.90;99.90;;;;;;5028453;28;20519;-64
2021/05/05 12:33:41;;;;;;;3.00;2.77;;;15.80;99.90;;;;;;5028012;28;20475;-64
2021/05/05 12:36:13;;;;;;;2.57;2.47;;;15.00;99.90;;;;;;5028568;28;20431;-64
2021/05/05 12:38:42;;;;;;;2.20;2.10;;;14.30;99.90;;;;;;5028172;28;20441;-63
2021/05/05 12:41:17;;;;;;;2.30;2.20;;;13.50;99.90;;;;;;5028758;28;20984;-65
2021/05/05 12:43:49;;;;;;;2.57;2.37;;;12.50;99.90;;;;;;5015943;28;20815;-64
2021/05/05 12:46:29;;;;;;;3.53;2.43;;;12.20;99.90;;;;;;5028838;28;20477;-64
2021/05/05 12:48:56;;;;;;;2.30;2.20;;;12.50;99.90;;;;;;5028034;28;21247;-64
2021/05/05 12:51:25;;;;;;;2.20;2.10;;;13.10;99.90;;;;;;5028828;28;20440;-64
2021/05/05 12:53:59;;;;;;;4.80;2.53;;;13.80;99.90;;;;;;5028031;28;20451;-64
2021/05/05 12:56:46;;;;;;;2.83;2.50;;;14.70;99.90;;;;;;5028843;28;20401;-64
2021/05/05 12:59:18;;;;;;;8.33;3.27;;;15.00;99.90;;;;;;5027477;28;20896;-64
2021/05/05 13:01:43;;;;;;;4.60;3.03;;;13.70;99.90;;;;;;5028118;28;20426;-67
2021/05/05 13:04:09;;;;;;;3.13;2.53;;;12.40;99.90;;;;;;5027534;28;20424;-64
2021/05/05 13:06:39;;;;;;;5.43;2.90;;;11.80;99.90;;;;;;5024609;28;20252;-64
2021/05/05 13:09:23;;;;;;;2.73;2.50;;;11.80;99.90;;;;;;5027680;28;20193;-63